Summerfield, Texas
Current Conditions -  °F | °C
As of 4:15 AM on Sunday 23 Nov 2014 (Local Time) from KHRX Reporting Station
Clear Clear  
Wind Chill: 50°   Ceiling: Unl
Heat Index: 50°   Visibility: 10mi
Dew Point: 24°   Wind: 18mph
Humidity: 36%   Direction: 230°SW
Pressure: 29.53"   Gusts: NA
Location:  34.74°N, 102.51°W
Report Text: KHRX 231015Z AUTO 23016KT 10SM CLR 10/M05 A2953 RMK AO2 T01011046
Loading
Personal Weather Stations






























Interactive Weather Map New forecast layout! Learn more

10-Day Weather Forecast

Advertisements
Track Severe Weather on mobile